sensor_id;sensor_type;location;lat;lon;timestamp;P1;durP1;ratioP1;P2;durP2;ratioP2
17917;SDS011;9084;50.956;3.106;2023-02-22T00:01:12;22.77;;;17.87;;
17917;SDS011;9084;50.956;3.106;2023-02-22T00:03:59;24.23;;;20.57;;
17917;SDS011;9084;50.956;3.106;2023-02-22T00:06:26;24.37;;;20.07;;
17917;SDS011;9084;50.956;3.106;2023-02-22T00:08:55;23.20;;;18.00;;
17917;SDS011;9084;50.956;3.106;2023-02-22T00:11:21;27.13;;;18.67;;
17917;SDS011;9084;50.956;3.106;2023-02-22T00:13:49;24.00;;;18.47;;
17917;SDS011;9084;50.956;3.106;2023-02-22T00:16:21;26.13;;;18.37;;
17917;SDS011;9084;50.956;3.106;2023-02-22T00:18:47;26.13;;;19.10;;
17917;SDS011;9084;50.956;3.106;2023-02-22T00:21:17;26.43;;;17.33;;
17917;SDS011;9084;50.956;3.106;2023-02-22T00:23:43;24.67;;;18.47;;
17917;SDS011;9084;50.956;3.106;2023-02-22T00:26:11;24.33;;;16.37;;
17917;SDS011;9084;50.956;3.106;2023-02-22T00:28:45;22.87;;;15.63;;
17917;SDS011;9084;50.956;3.106;2023-02-22T00:31:15;27.03;;;18.30;;
17917;SDS011;9084;50.956;3.106;2023-02-22T00:33:41;26.30;;;19.60;;
17917;SDS011;9084;50.956;3.106;2023-02-22T00:36:10;22.93;;;16.73;;
17917;SDS011;9084;50.956;3.106;2023-02-22T00:38:36;23.08;;;19.45;;
17917;SDS011;9084;50.956;3.106;2023-02-22T00:41:02;34.27;;;17.90;;
17917;SDS011;9084;50.956;3.106;2023-02-22T00:43:28;27.27;;;18.40;;
17917;SDS011;9084;50.956;3.106;2023-02-22T00:45:54;26.10;;;19.50;;
17917;SDS011;9084;50.956;3.106;2023-02-22T00:48:21;22.77;;;16.90;;
17917;SDS011;9084;50.956;3.106;2023-02-22T00:50:49;22.27;;;16.70;;
17917;SDS011;9084;50.956;3.106;2023-02-22T00:53:19;25.20;;;15.70;;
17917;SDS011;9084;50.956;3.106;2023-02-22T00:55:45;31.17;;;19.40;;
17917;SDS011;9084;50.956;3.106;2023-02-22T00:58:10;23.93;;;18.70;;
17917;SDS011;9084;50.956;3.106;2023-02-22T01:00:37;24.70;;;16.00;;
17917;SDS011;9084;50.956;3.106;2023-02-22T01:03:08;19.93;;;15.00;;
17917;SDS011;9084;50.956;3.106;2023-02-22T01:05:35;26.70;;;16.73;;
17917;SDS011;9084;50.956;3.106;2023-02-22T01:08:02;24.80;;;16.87;;
17917;SDS011;9084;50.956;3.106;2023-02-22T01:10:31;22.70;;;16.13;;
17917;SDS011;9084;50.956;3.106;2023-02-22T01:12:57;21.97;;;15.73;;
17917;SDS011;9084;50.956;3.106;2023-02-22T01:15:27;21.50;;;15.50;;
17917;SDS011;9084;50.956;3.106;2023-02-22T01:17:56;22.60;;;18.23;;
17917;SDS011;9084;50.956;3.106;2023-02-22T01:20:24;20.50;;;16.47;;
17917;SDS011;9084;50.956;3.106;2023-02-22T01:22:53;23.87;;;16.63;;
17917;SDS011;9084;50.956;3.106;2023-02-22T01:25:21;19.03;;;14.03;;
17917;SDS011;9084;50.956;3.106;2023-02-22T01:27:51;20.80;;;15.43;;
17917;SDS011;9084;50.956;3.106;2023-02-22T01:30:20;19.13;;;14.90;;
17917;SDS011;9084;50.956;3.106;2023-02-22T01:32:48;22.10;;;15.53;;
17917;SDS011;9084;50.956;3.106;2023-02-22T01:35:16;21.20;;;16.50;;
17917;SDS011;9084;50.956;3.106;2023-02-22T01:37:46;20.70;;;17.53;;
17917;SDS011;9084;50.956;3.106;2023-02-22T01:40:16;21.23;;;17.43;;
17917;SDS011;9084;50.956;3.106;2023-02-22T01:42:46;21.57;;;17.47;;
17917;SDS011;9084;50.956;3.106;2023-02-22T01:48:07;19.90;;;16.57;;
17917;SDS011;9084;50.956;3.106;2023-02-22T01:50:42;22.20;;;16.37;;
17917;SDS011;9084;50.956;3.106;2023-02-22T01:53:14;20.70;;;17.40;;
17917;SDS011;9084;50.956;3.106;2023-02-22T01:55:43;18.30;;;14.30;;
17917;SDS011;9084;50.956;3.106;2023-02-22T01:58:12;21.03;;;15.03;;
17917;SDS011;9084;50.956;3.106;2023-02-22T02:00:39;22.67;;;15.27;;
17917;SDS011;9084;50.956;3.106;2023-02-22T02:03:10;21.33;;;15.90;;
17917;SDS011;9084;50.956;3.106;2023-02-22T02:05:42;20.23;;;17.07;;
17917;SDS011;9084;50.956;3.106;2023-02-22T02:11:00;22.90;;;17.63;;
17917;SDS011;9084;50.956;3.106;2023-02-22T02:13:27;19.57;;;16.70;;
17917;SDS011;9084;50.956;3.106;2023-02-22T02:15:53;20.57;;;14.40;;
17917;SDS011;9084;50.956;3.106;2023-02-22T02:18:19;20.13;;;16.90;;
17917;SDS011;9084;50.956;3.106;2023-02-22T02:32:30;20.20;;;16.53;;
17917;SDS011;9084;50.956;3.106;2023-02-22T02:35:26;21.70;;;17.80;;
17917;SDS011;9084;50.956;3.106;2023-02-22T02:37:54;18.57;;;16.40;;
17917;SDS011;9084;50.956;3.106;2023-02-22T02:43:31;19.77;;;17.10;;
17917;SDS011;9084;50.956;3.106;2023-02-22T02:46:10;17.70;;;15.80;;
17917;SDS011;9084;50.956;3.106;2023-02-22T02:48:55;18.17;;;16.10;;
17917;SDS011;9084;50.956;3.106;2023-02-22T02:51:31;20.73;;;16.63;;
17917;SDS011;9084;50.956;3.106;2023-02-22T02:54:03;20.43;;;14.77;;
17917;SDS011;9084;50.956;3.106;2023-02-22T02:56:30;17.47;;;14.23;;
17917;SDS011;9084;50.956;3.106;2023-02-22T02:58:56;17.60;;;15.67;;
17917;SDS011;9084;50.956;3.106;2023-02-22T03:04:15;17.93;;;16.03;;
17917;SDS011;9084;50.956;3.106;2023-02-22T03:17:55;18.57;;;14.83;;
17917;SDS011;9084;50.956;3.106;2023-02-22T03:23:10;16.20;;;14.50;;
17917;SDS011;9084;50.956;3.106;2023-02-22T03:25:42;17.57;;;14.13;;
17917;SDS011;9084;50.956;3.106;2023-02-22T03:28:14;15.97;;;13.27;;
17917;SDS011;9084;50.956;3.106;2023-02-22T03:33:14;18.57;;;14.17;;
17917;SDS011;9084;50.956;3.106;2023-02-22T03:35:49;19.53;;;15.10;;
17917;SDS011;9084;50.956;3.106;2023-02-22T03:38:21;17.80;;;13.63;;
17917;SDS011;9084;50.956;3.106;2023-02-22T03:40:51;18.43;;;14.10;;
17917;SDS011;9084;50.956;3.106;2023-02-22T03:43:21;17.30;;;13.57;;
17917;SDS011;9084;50.956;3.106;2023-02-22T03:45:51;15.07;;;13.47;;
17917;SDS011;9084;50.956;3.106;2023-02-22T03:48:34;15.80;;;12.90;;
17917;SDS011;9084;50.956;3.106;2023-02-22T03:51:00;17.97;;;13.50;;
17917;SDS011;9084;50.956;3.106;2023-02-22T03:53:30;16.63;;;13.43;;
17917;SDS011;9084;50.956;3.106;2023-02-22T03:55:58;15.33;;;13.60;;
17917;SDS011;9084;50.956;3.106;2023-02-22T03:58:26;15.80;;;12.60;;
17917;SDS011;9084;50.956;3.106;2023-02-22T04:00:55;14.40;;;12.40;;
17917;SDS011;9084;50.956;3.106;2023-02-22T04:03:23;15.00;;;12.40;;
17917;SDS011;9084;50.956;3.106;2023-02-22T04:05:51;16.17;;;14.37;;
17917;SDS011;9084;50.956;3.106;2023-02-22T04:08:19;16.87;;;15.13;;
17917;SDS011;9084;50.956;3.106;2023-02-22T04:10:45;15.70;;;14.00;;
17917;SDS011;9084;50.956;3.106;2023-02-22T04:13:13;17.63;;;15.80;;
17917;SDS011;9084;50.956;3.106;2023-02-22T04:15:38;18.40;;;14.17;;
17917;SDS011;9084;50.956;3.106;2023-02-22T04:18:04;17.10;;;14.63;;
17917;SDS011;9084;50.956;3.106;2023-02-22T04:20:30;17.70;;;15.97;;
17917;SDS011;9084;50.956;3.106;2023-02-22T04:22:56;17.57;;;15.50;;
17917;SDS011;9084;50.956;3.106;2023-02-22T04:25:24;16.73;;;14.83;;
17917;SDS011;9084;50.956;3.106;2023-02-22T04:27:49;16.83;;;14.43;;
17917;SDS011;9084;50.956;3.106;2023-02-22T04:30:20;15.53;;;13.50;;
17917;SDS011;9084;50.956;3.106;2023-02-22T04:32:46;16.23;;;14.47;;
17917;SDS011;9084;50.956;3.106;2023-02-22T04:35:12;18.03;;;16.20;;
17917;SDS011;9084;50.956;3.106;2023-02-22T04:37:37;17.83;;;15.33;;
17917;SDS011;9084;50.956;3.106;2023-02-22T04:40:03;17.03;;;14.63;;
17917;SDS011;9084;50.956;3.106;2023-02-22T04:42:33;16.33;;;14.60;;
17917;SDS011;9084;50.956;3.106;2023-02-22T04:45:02;16.00;;;14.50;;
17917;SDS011;9084;50.956;3.106;2023-02-22T04:47:30;16.90;;;14.93;;
17917;SDS011;9084;50.956;3.106;2023-02-22T04:49:55;17.83;;;14.20;;
17917;SDS011;9084;50.956;3.106;2023-02-22T04:52:21;15.17;;;13.57;;
17917;SDS011;9084;50.956;3.106;2023-02-22T04:54:47;16.13;;;14.10;;
17917;SDS011;9084;50.956;3.106;2023-02-22T04:57:14;18.73;;;14.47;;
17917;SDS011;9084;50.956;3.106;2023-02-22T04:59:40;18.23;;;14.87;;
17917;SDS011;9084;50.956;3.106;2023-02-22T05:02:06;16.80;;;15.00;;
17917;SDS011;9084;50.956;3.106;2023-02-22T05:04:35;16.57;;;14.43;;
17917;SDS011;9084;50.956;3.106;2023-02-22T05:07:04;18.17;;;15.37;;
17917;SDS011;9084;50.956;3.106;2023-02-22T05:09:30;16.87;;;13.90;;
17917;SDS011;9084;50.956;3.106;2023-02-22T05:11:55;15.90;;;14.00;;
17917;SDS011;9084;50.956;3.106;2023-02-22T05:14:21;16.67;;;14.90;;
17917;SDS011;9084;50.956;3.106;2023-02-22T05:16:50;18.10;;;14.50;;
17917;SDS011;9084;50.956;3.106;2023-02-22T05:19:20;18.07;;;16.37;;
17917;SDS011;9084;50.956;3.106;2023-02-22T05:21:45;20.10;;;16.97;;
17917;SDS011;9084;50.956;3.106;2023-02-22T05:24:11;18.23;;;16.33;;
17917;SDS011;9084;50.956;3.106;2023-02-22T05:26:37;20.73;;;18.73;;
17917;SDS011;9084;50.956;3.106;2023-02-22T05:29:07;25.80;;;23.33;;
17917;SDS011;9084;50.956;3.106;2023-02-22T05:31:32;23.10;;;20.63;;
17917;SDS011;9084;50.956;3.106;2023-02-22T05:34:00;18.90;;;17.00;;
17917;SDS011;9084;50.956;3.106;2023-02-22T05:36:28;17.30;;;14.40;;
17917;SDS011;9084;50.956;3.106;2023-02-22T05:38:54;17.90;;;16.00;;
17917;SDS011;9084;50.956;3.106;2023-02-22T05:41:20;18.63;;;16.73;;
17917;SDS011;9084;50.956;3.106;2023-02-22T05:43:46;17.27;;;15.20;;
17917;SDS011;9084;50.956;3.106;2023-02-22T05:46:14;19.00;;;15.87;;
17917;SDS011;9084;50.956;3.106;2023-02-22T05:48:42;55.70;;;47.30;;
17917;SDS011;9084;50.956;3.106;2023-02-22T05:51:08;24.80;;;21.87;;
17917;SDS011;9084;50.956;3.106;2023-02-22T05:53:38;21.03;;;18.77;;
17917;SDS011;9084;50.956;3.106;2023-02-22T05:56:04;16.57;;;14.00;;
17917;SDS011;9084;50.956;3.106;2023-02-22T05:58:29;18.37;;;16.37;;
17917;SDS011;9084;50.956;3.106;2023-02-22T06:00:57;25.07;;;22.77;;
17917;SDS011;9084;50.956;3.106;2023-02-22T06:03:23;19.03;;;17.07;;
17917;SDS011;9084;50.956;3.106;2023-02-22T06:05:49;24.73;;;22.10;;
17917;SDS011;9084;50.956;3.106;2023-02-22T06:08:15;22.87;;;20.57;;
17917;SDS011;9084;50.956;3.106;2023-02-22T06:10:42;20.33;;;17.57;;
17917;SDS011;9084;50.956;3.106;2023-02-22T06:13:08;16.23;;;14.07;;
17917;SDS011;9084;50.956;3.106;2023-02-22T06:15:34;16.40;;;14.70;;
17917;SDS011;9084;50.956;3.106;2023-02-22T06:17:59;16.87;;;13.53;;
17917;SDS011;9084;50.956;3.106;2023-02-22T06:20:28;17.10;;;15.40;;
17917;SDS011;9084;50.956;3.106;2023-02-22T06:22:57;16.07;;;14.43;;
17917;SDS011;9084;50.956;3.106;2023-02-22T06:25:26;18.43;;;13.27;;
17917;SDS011;9084;50.956;3.106;2023-02-22T06:27:55;16.53;;;14.27;;
17917;SDS011;9084;50.956;3.106;2023-02-22T06:30:23;18.10;;;15.13;;
17917;SDS011;9084;50.956;3.106;2023-02-22T06:32:52;16.70;;;14.90;;
17917;SDS011;9084;50.956;3.106;2023-02-22T06:35:18;16.13;;;14.13;;
17917;SDS011;9084;50.956;3.106;2023-02-22T06:37:45;16.73;;;13.60;;
17917;SDS011;9084;50.956;3.106;2023-02-22T06:40:10;15.73;;;13.10;;
17917;SDS011;9084;50.956;3.106;2023-02-22T06:42:39;16.43;;;13.47;;
17917;SDS011;9084;50.956;3.106;2023-02-22T06:45:05;16.60;;;13.97;;
17917;SDS011;9084;50.956;3.106;2023-02-22T06:47:31;14.20;;;12.70;;
17917;SDS011;9084;50.956;3.106;2023-02-22T06:49:57;16.17;;;14.50;;
17917;SDS011;9084;50.956;3.106;2023-02-22T06:52:26;16.40;;;14.57;;
17917;SDS011;9084;50.956;3.106;2023-02-22T06:54:52;16.00;;;14.33;;
17917;SDS011;9084;50.956;3.106;2023-02-22T06:57:17;16.67;;;14.13;;
17917;SDS011;9084;50.956;3.106;2023-02-22T06:59:45;16.00;;;13.07;;
17917;SDS011;9084;50.956;3.106;2023-02-22T07:02:11;15.90;;;13.10;;
17917;SDS011;9084;50.956;3.106;2023-02-22T07:04:39;14.57;;;13.07;;
17917;SDS011;9084;50.956;3.106;2023-02-22T07:07:05;15.80;;;14.20;;
17917;SDS011;9084;50.956;3.106;2023-02-22T07:09:31;15.27;;;13.83;;
17917;SDS011;9084;50.956;3.106;2023-02-22T07:11:56;14.83;;;13.33;;
17917;SDS011;9084;50.956;3.106;2023-02-22T07:14:22;15.93;;;13.93;;
17917;SDS011;9084;50.956;3.106;2023-02-22T07:16:50;16.63;;;13.53;;
17917;SDS011;9084;50.956;3.106;2023-02-22T07:19:16;15.10;;;13.03;;
17917;SDS011;9084;50.956;3.106;2023-02-22T07:21:41;16.20;;;13.43;;
17917;SDS011;9084;50.956;3.106;2023-02-22T07:24:07;16.97;;;13.93;;
17917;SDS011;9084;50.956;3.106;2023-02-22T07:26:42;15.33;;;13.47;;
17917;SDS011;9084;50.956;3.106;2023-02-22T07:29:10;13.73;;;12.33;;
17917;SDS011;9084;50.956;3.106;2023-02-22T07:31:36;15.03;;;13.37;;
17917;SDS011;9084;50.956;3.106;2023-02-22T07:34:03;14.40;;;12.37;;
17917;SDS011;9084;50.956;3.106;2023-02-22T07:36:28;14.23;;;12.80;;
17917;SDS011;9084;50.956;3.106;2023-02-22T07:38:54;15.07;;;13.43;;
17917;SDS011;9084;50.956;3.106;2023-02-22T07:41:20;16.10;;;13.33;;
17917;SDS011;9084;50.956;3.106;2023-02-22T07:43:47;15.73;;;13.07;;
17917;SDS011;9084;50.956;3.106;2023-02-22T07:46:15;14.87;;;13.27;;
17917;SDS011;9084;50.956;3.106;2023-02-22T07:48:41;14.17;;;12.87;;
17917;SDS011;9084;50.956;3.106;2023-02-22T07:51:07;15.23;;;13.82;;
17917;SDS011;9084;50.956;3.106;2023-02-22T07:53:34;14.47;;;13.07;;
17917;SDS011;9084;50.956;3.106;2023-02-22T07:56:00;15.17;;;13.57;;
17917;SDS011;9084;50.956;3.106;2023-02-22T07:58:27;15.55;;;13.30;;
17917;SDS011;9084;50.956;3.106;2023-02-22T08:00:56;14.87;;;13.17;;
17917;SDS011;9084;50.956;3.106;2023-02-22T08:03:29;14.87;;;13.37;;
17917;SDS011;9084;50.956;3.106;2023-02-22T08:06:03;15.93;;;14.23;;
17917;SDS011;9084;50.956;3.106;2023-02-22T08:08:31;15.13;;;12.52;;
17917;SDS011;9084;50.956;3.106;2023-02-22T08:10:57;15.35;;;13.73;;
17917;SDS011;9084;50.956;3.106;2023-02-22T08:13:22;15.23;;;13.63;;
17917;SDS011;9084;50.956;3.106;2023-02-22T08:15:49;15.52;;;13.93;;
17917;SDS011;9084;50.956;3.106;2023-02-22T08:18:17;15.60;;;14.00;;
17917;SDS011;9084;50.956;3.106;2023-02-22T08:20:44;16.17;;;14.57;;
17917;SDS011;9084;50.956;3.106;2023-02-22T08:23:12;15.15;;;13.48;;
17917;SDS011;9084;50.956;3.106;2023-02-22T08:25:39;15.98;;;13.70;;
17917;SDS011;9084;50.956;3.106;2023-02-22T08:28:06;14.88;;;13.38;;
17917;SDS011;9084;50.956;3.106;2023-02-22T08:30:40;16.55;;;14.93;;
17917;SDS011;9084;50.956;3.106;2023-02-22T08:33:12;15.70;;;14.13;;
17917;SDS011;9084;50.956;3.106;2023-02-22T08:35:43;15.20;;;13.70;;
17917;SDS011;9084;50.956;3.106;2023-02-22T08:38:18;15.68;;;14.07;;
17917;SDS011;9084;50.956;3.106;2023-02-22T08:40:53;16.35;;;14.45;;
17917;SDS011;9084;50.956;3.106;2023-02-22T08:43:19;15.95;;;14.05;;
17917;SDS011;9084;50.956;3.106;2023-02-22T08:45:46;15.20;;;13.70;;
17917;SDS011;9084;50.956;3.106;2023-02-22T08:48:13;15.63;;;14.02;;
17917;SDS011;9084;50.956;3.106;2023-02-22T08:50:39;18.02;;;15.65;;
17917;SDS011;9084;50.956;3.106;2023-02-22T08:53:06;14.73;;;13.32;;
17917;SDS011;9084;50.956;3.106;2023-02-22T08:55:34;16.30;;;14.55;;
17917;SDS011;9084;50.956;3.106;2023-02-22T08:58:02;16.20;;;14.60;;
17917;SDS011;9084;50.956;3.106;2023-02-22T09:00:30;16.08;;;14.57;;
17917;SDS011;9084;50.956;3.106;2023-02-22T09:03:01;16.80;;;15.20;;
17917;SDS011;9084;50.956;3.106;2023-02-22T09:05:28;16.65;;;14.90;;
17917;SDS011;9084;50.956;3.106;2023-02-22T09:07:54;17.80;;;15.98;;
17917;SDS011;9084;50.956;3.106;2023-02-22T09:10:24;17.27;;;15.68;;
17917;SDS011;9084;50.956;3.106;2023-02-22T09:12:53;18.00;;;16.30;;
17917;SDS011;9084;50.956;3.106;2023-02-22T09:15:25;17.13;;;15.43;;
17917;SDS011;9084;50.956;3.106;2023-02-22T09:17:51;18.02;;;16.33;;
17917;SDS011;9084;50.956;3.106;2023-02-22T09:20:20;17.17;;;15.57;;
17917;SDS011;9084;50.956;3.106;2023-02-22T09:22:47;17.38;;;15.77;;
17917;SDS011;9084;50.956;3.106;2023-02-22T09:25:14;17.60;;;15.90;;
17917;SDS011;9084;50.956;3.106;2023-02-22T09:27:43;17.75;;;16.05;;
17917;SDS011;9084;50.956;3.106;2023-02-22T09:30:23;18.55;;;16.73;;
17917;SDS011;9084;50.956;3.106;2023-02-22T09:32:50;20.48;;;18.42;;
17917;SDS011;9084;50.956;3.106;2023-02-22T09:35:19;21.77;;;19.45;;
17917;SDS011;9084;50.956;3.106;2023-02-22T09:37:50;20.27;;;18.38;;
17917;SDS011;9084;50.956;3.106;2023-02-22T09:40:17;20.45;;;18.55;;
17917;SDS011;9084;50.956;3.106;2023-02-22T09:43:36;20.50;;;18.45;;
17917;SDS011;9084;50.956;3.106;2023-02-22T09:45:50;20.55;;;18.45;;
17917;SDS011;9084;50.956;3.106;2023-02-22T09:48:39;20.42;;;18.42;;
17917;SDS011;9084;50.956;3.106;2023-02-22T09:51:21;24.67;;;22.35;;
17917;SDS011;9084;50.956;3.106;2023-02-22T09:53:59;22.38;;;20.27;;
17917;SDS011;9084;50.956;3.106;2023-02-22T09:56:30;26.45;;;24.02;;
17917;SDS011;9084;50.956;3.106;2023-02-22T09:59:04;23.83;;;21.38;;
17917;SDS011;9084;50.956;3.106;2023-02-22T10:04:21;22.77;;;20.60;;
17917;SDS011;9084;50.956;3.106;2023-02-22T10:09:20;22.17;;;19.98;;
17917;SDS011;9084;50.956;3.106;2023-02-22T10:11:54;22.58;;;20.38;;
17917;SDS011;9084;50.956;3.106;2023-02-22T10:20:34;22.20;;;19.92;;
17917;SDS011;9084;50.956;3.106;2023-02-22T10:23:08;22.13;;;20.10;;
17917;SDS011;9084;50.956;3.106;2023-02-22T10:25:37;22.95;;;20.75;;
17917;SDS011;9084;50.956;3.106;2023-02-22T10:28:15;22.73;;;20.63;;
17917;SDS011;9084;50.956;3.106;2023-02-22T10:30:46;22.33;;;19.98;;
17917;SDS011;9084;50.956;3.106;2023-02-22T10:33:23;24.17;;;21.73;;
17917;SDS011;9084;50.956;3.106;2023-02-22T10:35:53;27.73;;;24.92;;
17917;SDS011;9084;50.956;3.106;2023-02-22T10:38:21;27.83;;;24.92;;
17917;SDS011;9084;50.956;3.106;2023-02-22T10:41:34;29.15;;;26.27;;
17917;SDS011;9084;50.956;3.106;2023-02-22T10:43:40;29.67;;;26.65;;
17917;SDS011;9084;50.956;3.106;2023-02-22T10:46:07;30.90;;;27.55;;
17917;SDS011;9084;50.956;3.106;2023-02-22T10:48:40;32.47;;;29.23;;
17917;SDS011;9084;50.956;3.106;2023-02-22T10:51:10;30.02;;;26.80;;
17917;SDS011;9084;50.956;3.106;2023-02-22T10:53:37;32.40;;;28.92;;
17917;SDS011;9084;50.956;3.106;2023-02-22T10:56:07;31.20;;;28.10;;
17917;SDS011;9084;50.956;3.106;2023-02-22T10:58:56;33.08;;;29.55;;
17917;SDS011;9084;50.956;3.106;2023-02-22T11:06:42;33.13;;;29.63;;
17917;SDS011;9084;50.956;3.106;2023-02-22T11:09:11;32.20;;;28.80;;
17917;SDS011;9084;50.956;3.106;2023-02-22T11:11:46;36.10;;;30.70;;
17917;SDS011;9084;50.956;3.106;2023-02-22T11:14:28;35.22;;;31.35;;
17917;SDS011;9084;50.956;3.106;2023-02-22T11:16:57;35.08;;;31.45;;
17917;SDS011;9084;50.956;3.106;2023-02-22T11:19:28;38.90;;;32.17;;
17917;SDS011;9084;50.956;3.106;2023-02-22T11:24:46;36.75;;;31.90;;
17917;SDS011;9084;50.956;3.106;2023-02-22T11:27:36;33.45;;;29.95;;
17917;SDS011;9084;50.956;3.106;2023-02-22T11:32:52;37.60;;;32.22;;
17917;SDS011;9084;50.956;3.106;2023-02-22T11:37:53;35.03;;;31.27;;
17917;SDS011;9084;50.956;3.106;2023-02-22T11:40:33;33.70;;;30.13;;
17917;SDS011;9084;50.956;3.106;2023-02-22T11:43:16;34.03;;;30.42;;
17917;SDS011;9084;50.956;3.106;2023-02-22T11:45:54;37.83;;;32.70;;
17917;SDS011;9084;50.956;3.106;2023-02-22T11:49:06;39.90;;;32.25;;
17917;SDS011;9084;50.956;3.106;2023-02-22T12:18:23;45.85;;;35.30;;
17917;SDS011;9084;50.956;3.106;2023-02-22T12:21:14;46.35;;;36.17;;
17917;SDS011;9084;50.956;3.106;2023-02-22T12:23:48;46.53;;;36.60;;
17917;SDS011;9084;50.956;3.106;2023-02-22T12:29:30;47.60;;;34.42;;
17917;SDS011;9084;50.956;3.106;2023-02-22T12:32:04;42.78;;;35.05;;
17917;SDS011;9084;50.956;3.106;2023-02-22T12:34:45;41.13;;;33.65;;
17917;SDS011;9084;50.956;3.106;2023-02-22T12:37:23;39.90;;;32.55;;
17917;SDS011;9084;50.956;3.106;2023-02-22T12:40:13;38.60;;;32.78;;
17917;SDS011;9084;50.956;3.106;2023-02-22T12:45:39;34.65;;;30.10;;
17917;SDS011;9084;50.956;3.106;2023-02-22T12:48:31;38.10;;;30.60;;
17917;SDS011;9084;50.956;3.106;2023-02-22T12:57:08;36.63;;;31.35;;
17917;SDS011;9084;50.956;3.106;2023-02-22T13:04:46;33.25;;;29.67;;
17917;SDS011;9084;50.956;3.106;2023-02-22T13:07:28;31.40;;;28.08;;
17917;SDS011;9084;50.956;3.106;2023-02-22T13:10:22;31.83;;;27.90;;
17917;SDS011;9084;50.956;3.106;2023-02-22T13:19:02;28.92;;;25.85;;
17917;SDS011;9084;50.956;3.106;2023-02-22T13:21:52;28.48;;;25.48;;
17917;SDS011;9084;50.956;3.106;2023-02-22T13:24:27;27.70;;;24.75;;
17917;SDS011;9084;50.956;3.106;2023-02-22T13:27:04;26.77;;;24.08;;
17917;SDS011;9084;50.956;3.106;2023-02-22T13:29:38;29.20;;;26.17;;
17917;SDS011;9084;50.956;3.106;2023-02-22T13:32:30;30.27;;;26.30;;
17917;SDS011;9084;50.956;3.106;2023-02-22T13:35:07;31.25;;;27.33;;
17917;SDS011;9084;50.956;3.106;2023-02-22T13:37:59;33.40;;;29.33;;
17917;SDS011;9084;50.956;3.106;2023-02-22T13:46:35;31.05;;;27.08;;
17917;SDS011;9084;50.956;3.106;2023-02-22T13:57:26;27.75;;;24.65;;
17917;SDS011;9084;50.956;3.106;2023-02-22T14:08:51;27.58;;;24.30;;
17917;SDS011;9084;50.956;3.106;2023-02-22T14:13:28;25.52;;;22.00;;
17917;SDS011;9084;50.956;3.106;2023-02-22T14:18:40;23.75;;;21.25;;
17917;SDS011;9084;50.956;3.106;2023-02-22T14:21:11;28.98;;;24.15;;
17917;SDS011;9084;50.956;3.106;2023-02-22T14:23:42;23.67;;;20.83;;
17917;SDS011;9084;50.956;3.106;2023-02-22T14:31:20;26.05;;;21.48;;
17917;SDS011;9084;50.956;3.106;2023-02-22T14:34:16;26.20;;;21.63;;
17917;SDS011;9084;50.956;3.106;2023-02-22T14:47:42;28.55;;;22.17;;
17917;SDS011;9084;50.956;3.106;2023-02-22T14:53:14;24.15;;;21.55;;
17917;SDS011;9084;50.956;3.106;2023-02-22T14:56:27;23.95;;;21.10;;
17917;SDS011;9084;50.956;3.106;2023-02-22T14:58:48;22.50;;;19.85;;
17917;SDS011;9084;50.956;3.106;2023-02-22T15:01:27;24.08;;;20.38;;
17917;SDS011;9084;50.956;3.106;2023-02-22T15:03:58;25.08;;;20.67;;
17917;SDS011;9084;50.956;3.106;2023-02-22T15:06:44;25.70;;;21.30;;
17917;SDS011;9084;50.956;3.106;2023-02-22T15:11:47;24.25;;;20.25;;
17917;SDS011;9084;50.956;3.106;2023-02-22T15:14:20;24.58;;;20.85;;
17917;SDS011;9084;50.956;3.106;2023-02-22T15:16:58;23.05;;;19.65;;
17917;SDS011;9084;50.956;3.106;2023-02-22T15:19:32;21.52;;;19.20;;
17917;SDS011;9084;50.956;3.106;2023-02-22T15:22:04;26.63;;;20.83;;
17917;SDS011;9084;50.956;3.106;2023-02-22T15:24:42;24.67;;;20.27;;
17917;SDS011;9084;50.956;3.106;2023-02-22T15:27:13;23.60;;;19.38;;
17917;SDS011;9084;50.956;3.106;2023-02-22T15:29:43;30.00;;;21.73;;
17917;SDS011;9084;50.956;3.106;2023-02-22T15:32:19;23.20;;;20.65;;
17917;SDS011;9084;50.956;3.106;2023-02-22T15:34:51;23.42;;;20.08;;
17917;SDS011;9084;50.956;3.106;2023-02-22T15:37:21;23.40;;;20.38;;
17917;SDS011;9084;50.956;3.106;2023-02-22T15:39:53;23.77;;;20.85;;
17917;SDS011;9084;50.956;3.106;2023-02-22T15:42:31;24.60;;;20.77;;
17917;SDS011;9084;50.956;3.106;2023-02-22T15:45:11;24.60;;;21.40;;
17917;SDS011;9084;50.956;3.106;2023-02-22T15:47:43;23.30;;;20.75;;
17917;SDS011;9084;50.956;3.106;2023-02-22T15:50:20;24.15;;;20.20;;
17917;SDS011;9084;50.956;3.106;2023-02-22T15:52:58;26.75;;;22.33;;
17917;SDS011;9084;50.956;3.106;2023-02-22T16:00:42;24.90;;;21.50;;
17917;SDS011;9084;50.956;3.106;2023-02-22T16:03:17;22.52;;;20.08;;
17917;SDS011;9084;50.956;3.106;2023-02-22T16:05:50;23.70;;;21.15;;
17917;SDS011;9084;50.956;3.106;2023-02-22T16:08:23;24.90;;;21.02;;
17917;SDS011;9084;50.956;3.106;2023-02-22T16:10:59;25.85;;;21.40;;
17917;SDS011;9084;50.956;3.106;2023-02-22T16:13:33;24.50;;;21.52;;
17917;SDS011;9084;50.956;3.106;2023-02-22T16:18:47;24.92;;;22.20;;
17917;SDS011;9084;50.956;3.106;2023-02-22T16:21:15;27.83;;;23.27;;
17917;SDS011;9084;50.956;3.106;2023-02-22T16:26:47;29.88;;;22.70;;
17917;SDS011;9084;50.956;3.106;2023-02-22T16:29:04;25.92;;;22.25;;
17917;SDS011;9084;50.956;3.106;2023-02-22T16:31:37;23.60;;;21.10;;
17917;SDS011;9084;50.956;3.106;2023-02-22T16:34:07;23.83;;;21.27;;
17917;SDS011;9084;50.956;3.106;2023-02-22T16:36:37;26.30;;;21.90;;
17917;SDS011;9084;50.956;3.106;2023-02-22T16:39:06;28.38;;;22.95;;
17917;SDS011;9084;50.956;3.106;2023-02-22T16:41:36;27.33;;;22.27;;
17917;SDS011;9084;50.956;3.106;2023-02-22T16:44:04;25.98;;;22.00;;
17917;SDS011;9084;50.956;3.106;2023-02-22T16:46:32;30.73;;;23.23;;
17917;SDS011;9084;50.956;3.106;2023-02-22T16:48:58;26.80;;;23.30;;
17917;SDS011;9084;50.956;3.106;2023-02-22T16:51:28;24.35;;;21.55;;
17917;SDS011;9084;50.956;3.106;2023-02-22T16:54:08;25.60;;;22.42;;
17917;SDS011;9084;50.956;3.106;2023-02-22T16:56:43;26.02;;;21.52;;
17917;SDS011;9084;50.956;3.106;2023-02-22T16:59:12;25.42;;;21.52;;
17917;SDS011;9084;50.956;3.106;2023-02-22T17:01:39;25.67;;;22.55;;
17917;SDS011;9084;50.956;3.106;2023-02-22T17:04:15;27.48;;;23.10;;
17917;SDS011;9084;50.956;3.106;2023-02-22T17:06:42;30.25;;;22.33;;
17917;SDS011;9084;50.956;3.106;2023-02-22T17:09:10;27.35;;;22.88;;
17917;SDS011;9084;50.956;3.106;2023-02-22T17:11:37;24.05;;;20.85;;
17917;SDS011;9084;50.956;3.106;2023-02-22T17:14:05;29.33;;;21.60;;
17917;SDS011;9084;50.956;3.106;2023-02-22T17:16:33;26.90;;;21.88;;
17917;SDS011;9084;50.956;3.106;2023-02-22T17:18:59;26.67;;;22.42;;
17917;SDS011;9084;50.956;3.106;2023-02-22T17:21:25;27.08;;;21.83;;
17917;SDS011;9084;50.956;3.106;2023-02-22T17:23:52;25.40;;;22.25;;
17917;SDS011;9084;50.956;3.106;2023-02-22T17:26:18;24.63;;;21.33;;
17917;SDS011;9084;50.956;3.106;2023-02-22T17:28:44;24.77;;;21.10;;
17917;SDS011;9084;50.956;3.106;2023-02-22T17:31:14;27.80;;;23.15;;
17917;SDS011;9084;50.956;3.106;2023-02-22T17:33:44;28.13;;;22.05;;
17917;SDS011;9084;50.956;3.106;2023-02-22T17:36:12;26.77;;;22.00;;
17917;SDS011;9084;50.956;3.106;2023-02-22T17:38:37;28.52;;;22.45;;
17917;SDS011;9084;50.956;3.106;2023-02-22T17:41:05;25.50;;;22.77;;
17917;SDS011;9084;50.956;3.106;2023-02-22T17:43:31;26.38;;;20.70;;
17917;SDS011;9084;50.956;3.106;2023-02-22T17:45:57;27.35;;;22.55;;
17917;SDS011;9084;50.956;3.106;2023-02-22T17:48:23;29.20;;;22.75;;